Time;durP1;ratioP1;P1;durP2;ratioP2;P2;SDS_P1;SDS_P2;PMS_P1;PMS_P2;Temp;Humidity;BMP_temperature;BMP_pressure;BME280_temperature;BME280_humidity;BME280_pressure;Samples;Min_cycle;Max_cycle;Signal;HPM_P1;HPM_P2
2022/11/17 03:21:05;;;;;;;;;;;;;;;5.77;100.00;97212.25;5035342;23;19926;-84
2022/11/17 03:23:36;;;;;;;;;;;;;;;5.72;100.00;97208.25;4954031;29;19938;-83
2022/11/17 03:26:04;;;;;;;;;;;;;;;5.81;100.00;97194.53;4955106;29;19918;-90
2022/11/17 03:28:31;;;;;;;;;;;;;;;5.78;100.00;97195.56;4955313;29;19958;-85
2022/11/17 03:30:58;;;;;;;;;;;;;;;5.82;100.00;97185.69;4955127;29;19914;-84
2022/11/17 03:33:25;;;;;;;;;;;;;;;5.84;100.00;97178.56;4954388;29;20259;-85
2022/11/17 03:35:57;;;;;;;;;;;;;;;5.87;100.00;97173.13;4955014;28;19918;-85
2022/11/17 03:38:24;;;;;;;;;;;;;;;5.79;100.00;97170.13;4954845;28;19946;-85
2022/11/17 03:40:50;;;;;;;;;;;;;;;5.85;100.00;97153.97;4954882;28;19926;-86
2022/11/17 03:43:17;;;;;;;;;;;;;;;5.85;100.00;97169.72;4957869;29;19918;-85
2022/11/17 03:45:51;;;;;;;;;;;;;;;5.88;100.00;97216.84;4959027;29;20079;-92
2022/11/17 03:48:23;;;;;;;;;;;;;;;5.88;100.00;97229.13;4959003;28;19918;-83
2022/11/17 03:50:49;;;;;;;;;;;;;;;5.82;100.00;97217.22;4958206;29;19919;-83
2022/11/17 03:53:14;;;;;;;;;;;;;;;5.83;100.00;97208.41;4958892;29;19925;-83
2022/11/17 03:55:42;;;;;;;;;;;;;;;5.81;100.00;97198.00;4957607;29;19957;-83
2022/11/17 03:58:11;;;;;;;;;;;;;;;5.78;100.00;97200.00;4958723;29;19977;-83
2022/11/17 04:00:47;;;;;;;;;;;;;;;5.83;100.00;97200.53;4958746;28;19919;-83
2022/11/17 04:03:22;;;;;;;;;;;;;;;5.80;100.00;97192.84;4957464;29;19925;-85
2022/11/17 04:05:47;;;;;;;;;;;;;;;5.79;100.00;97209.53;4958062;28;19918;-84
2022/11/17 04:08:13;;;;;;;;;;;;;;;5.74;100.00;97193.22;4958654;28;19918;-84
2022/11/17 04:15:55;;;;;;;;;;;;;;;5.72;100.00;97193.31;4957400;29;19949;-84
2022/11/17 04:16:07;;;;;;;;;;;;;;;5.73;100.00;97175.81;4958359;29;19929;-85
2022/11/17 04:18:33;;;;;;;;;;;;;;;5.77;100.00;97172.84;4957222;28;19918;-84
2022/11/17 04:20:58;;;;;;;;;;;;;;;5.72;100.00;97176.72;4958077;28;19922;-84
2022/11/17 04:23:24;;;;;;;;;;;;;;;5.74;100.00;97180.09;4958407;29;19962;-84
2022/11/17 04:28:35;;;;;;;;;;;;;;;5.72;100.00;97168.84;4958306;29;19961;-84
2022/11/17 04:31:02;;;;;;;;;;;;;;;5.69;100.00;97174.31;4958085;29;19922;-84
2022/11/17 04:33:27;;;;;;;;;;;;;;;5.68;100.00;97165.59;4957509;29;20317;-84
2022/11/17 04:35:52;;;;;;;;;;;;;;;5.70;100.00;97170.75;4957596;29;20043;-84
2022/11/17 04:38:17;;;;;;;;;;;;;;;5.67;100.00;97170.94;4958028;29;20333;-85
2022/11/17 04:41:52;;;;;;;;;;;;;;;5.68;100.00;97169.97;4956636;29;19926;-84
2022/11/17 04:43:28;;;;;;;;;;;;;;;5.69;100.00;97174.31;4957794;29;20017;-83
2022/11/17 04:45:57;;;;;;;;;;;;;;;5.68;100.00;97156.84;4957932;29;19961;-83
2022/11/17 04:48:22;;;;;;;;;;;;;;;5.68;100.00;97162.97;4957944;28;19942;-83
2022/11/17 04:50:51;;;;;;;;;;;;;;;5.69;100.00;97167.25;4956546;29;19965;-82
2022/11/17 04:53:16;;;;;;;;;;;;;;;5.70;100.00;97160.22;4957392;28;19922;-83
2022/11/17 04:55:42;;;;;;;;;;;;;;;5.69;100.00;97159.38;4957751;29;19925;-83
2022/11/17 04:58:07;;;;;;;;;;;;;;;5.70;100.00;97157.59;4957697;29;19923;-83
2022/11/17 05:00:32;;;;;;;;;;;;;;;5.72;100.00;97164.44;4957615;29;19918;-83
2022/11/17 08:41:05;;;;;;;;;;;;;;;5.70;100.00;97358.13;4074891;27;19970;-87
2022/11/17 08:43:33;;;;;;;;;;;;;;;5.69;100.00;97358.22;4939113;29;19930;-86
2022/11/17 08:46:05;;;;;;;;;;;;;;;5.77;100.00;97371.72;4938819;29;19920;-88
2022/11/17 08:51:18;;;;;;;;;;;;;;;5.85;100.00;97374.72;4294450;26;19926;-90
2022/11/17 08:53:44;;;;;;;;;;;;;;;5.89;100.00;97375.34;4955457;29;19918;-90
2022/11/17 08:56:12;;;;;;;;;;;;;;;5.93;100.00;97382.97;4956448;29;20021;-93
2022/11/17 08:58:38;;;;;;;;;;;;;;;5.90;100.00;97377.06;4957957;28;19919;-91
2022/11/17 09:01:14;;;;;;;;;;;;;;;5.97;100.00;97379.25;4956545;29;19965;-89
2022/11/17 09:03:46;;;;;;;;;;;;;;;5.94;100.00;97383.81;4957442;29;19965;-90
2022/11/17 09:06:13;;;;;;;;;;;;;;;5.92;100.00;97381.28;4957736;28;19918;-90
2022/11/17 09:08:38;;;;;;;;;;;;;;;5.90;100.00;97377.91;4956378;28;19933;-90
2022/11/17 09:11:08;;;;;;;;;;;;;;;5.91;100.00;97382.22;4957515;28;19922;-89
2022/11/17 09:13:33;;;;;;;;;;;;;;;5.94;100.00;97383.81;4957533;28;19922;-89
2022/11/17 09:16:02;;;;;;;;;;;;;;;5.95;100.00;97390.75;4951739;29;19918;-88
2022/11/17 09:18:28;;;;;;;;;;;;;;;5.91;100.00;97390.09;4944595;29;19922;-90
2022/11/17 09:20:58;;;;;;;;;;;;;;;5.92;100.00;97396.19;4951129;28;19927;-90
2022/11/17 09:23:41;;;;;;;;;;;;;;;5.93;100.00;97395.28;4951354;29;19927;-89
2022/11/17 09:26:10;;;;;;;;;;;;;;;5.97;100.00;97397.66;4940011;28;20021;-87
2022/11/17 09:28:39;;;;;;;;;;;;;;;5.97;100.00;97405.53;4965832;28;19923;-88
2022/11/17 09:31:08;;;;;;;;;;;;;;;5.98;100.00;97412.50;4949602;28;19922;-89
2022/11/17 09:33:39;;;;;;;;;;;;;;;5.98;100.00;97412.50;4956149;28;19926;-88
2022/11/17 09:36:12;;;;;;;;;;;;;;;5.95;100.00;97419.66;4953374;28;20437;-87
2022/11/17 09:38:40;;;;;;;;;;;;;;;5.94;100.00;97410.94;4951537;29;20037;-88
2022/11/17 09:41:18;;;;;;;;;;;;;;;5.96;100.00;97424.88;4942657;29;20334;-89
2022/11/17 09:44:09;;;;;;;;;;;;;;;5.94;100.00;97425.88;4957051;28;19966;-87
2022/11/17 09:46:49;;;;;;;;;;;;;;;6.60;100.00;97418.28;4941886;29;19962;-85
2022/11/17 09:49:24;;;;;;;;;;;;;;;6.81;100.00;97421.31;4933109;29;19919;-82
2022/11/17 09:51:49;;;;;;;;;;;;;;;6.45;100.00;97425.38;4937840;29;19967;-83
2022/11/17 09:54:17;;;;;;;;;;;;;;;6.24;100.00;97428.44;4944975;28;19957;-82
2022/11/17 09:56:44;;;;;;;;;;;;;;;6.14;100.00;97438.69;4948702;28;19981;-86
2022/11/17 09:59:12;;;;;;;;;;;;;;;6.12;100.00;97434.44;4938633;28;20294;-82
2022/11/17 10:01:37;;;;;;;;;;;;;;;6.10;100.00;97437.16;4949897;28;19973;-82
2022/11/17 10:04:11;;;;;;;;;;;;;;;6.09;100.00;97434.63;4962760;28;21537;-86
2022/11/17 10:06:36;;;;;;;;;;;;;;;6.06;100.00;97434.81;4951678;29;19926;-82
2022/11/17 10:09:20;;;;;;;;;;;;;;;6.00;100.00;97442.16;4947729;29;19919;-87
2022/11/17 10:11:46;;;;;;;;;;;;;;;6.01;100.00;97432.47;4951648;29;20029;-85
2022/11/17 10:14:13;;;;;;;;;;;;;;;6.03;100.00;97435.00;4951861;29;19973;-83
2022/11/17 10:16:41;;;;;;;;;;;;;;;6.02;100.00;97428.09;4952010;29;19918;-85
2022/11/17 10:19:26;;;;;;;;;;;;;;;5.96;100.00;97437.13;4951850;29;19925;-87
2022/11/17 10:21:56;;;;;;;;;;;;;;;5.96;100.00;97434.50;4937036;29;20302;-83
2022/11/17 10:24:35;;;;;;;;;;;;;;;5.93;100.00;97435.53;4935790;29;20013;-86
2022/11/17 10:27:02;;;;;;;;;;;;;;;5.93;100.00;97438.16;4936913;29;20374;-85
2022/11/17 10:29:27;;;;;;;;;;;;;;;5.91;100.00;97432.16;4936962;29;19926;-85
2022/11/17 10:31:53;;;;;;;;;;;;;;;5.93;100.00;97445.22;4937232;29;19923;-87
2022/11/17 10:34:38;;;;;;;;;;;;;;;5.92;100.00;97449.63;4936884;29;19923;-84
2022/11/17 10:37:12;;;;;;;;;;;;;;;5.90;100.00;97446.22;4936800;29;20017;-83
2022/11/17 10:39:39;;;;;;;;;;;;;;;5.87;100.00;97438.56;4935485;29;19919;-87
2022/11/17 10:42:30;;;;;;;;;;;;;;;5.90;100.00;97440.97;4936627;29;19929;-87
2022/11/17 10:44:57;;;;;;;;;;;;;;;5.90;100.00;97435.72;4935522;29;19925;-86
2022/11/17 10:47:27;;;;;;;;;;;;;;;5.96;100.00;97434.50;4936647;29;19940;-87
2022/11/17 10:50:13;;;;;;;;;;;;;;;5.91;100.00;97432.16;4936493;29;19933;-86
2022/11/17 10:52:38;;;;;;;;;;;;;;;5.91;100.00;97457.63;4936380;29;19969;-87
2022/11/17 10:55:23;;;;;;;;;;;;;;;5.91;100.00;97444.47;4935128;29;20005;-87
2022/11/17 10:57:51;;;;;;;;;;;;;;;5.92;100.00;97446.13;4951219;29;19926;-87
2022/11/17 11:00:45;;;;;;;;;;;;;;;5.92;100.00;97446.13;4936581;29;19918;-86
2022/11/17 11:03:16;;;;;;;;;;;;;;;5.92;100.00;97459.28;4931654;29;19966;-82
2022/11/17 11:06:01;;;;;;;;;;;;;;;5.87;100.00;97467.47;4936441;29;20279;-84
2022/11/17 11:08:33;;;;;;;;;;;;;;;5.85;100.00;97458.81;4926802;29;20367;-86
2022/11/17 11:10:59;;;;;;;;;;;;;;;5.82;100.00;97461.63;4936252;29;19919;-84
2022/11/17 11:13:44;;;;;;;;;;;;;;;5.83;100.00;97466.78;4936248;29;19926;-82
2022/11/17 11:16:10;;;;;;;;;;;;;;;5.79;100.00;97461.81;4936127;29;19919;-87
2022/11/17 11:18:36;;;;;;;;;;;;;;;5.80;100.00;97455.63;4936261;29;19919;-85
2022/11/17 11:21:13;;;;;;;;;;;;;;;5.76;100.00;97459.38;4936044;29;20286;-86
2022/11/17 11:23:45;;;;;;;;;;;;;;;5.76;100.00;97457.59;4934791;29;19919;-82
2022/11/17 11:26:13;;;;;;;;;;;;;;;5.72;100.00;97471.00;4935849;29;19922;-80
2022/11/17 11:28:38;;;;;;;;;;;;;;;5.72;100.00;97463.97;4936139;29;20397;-86
2022/11/17 11:31:19;;;;;;;;;;;;;;;5.70;100.00;97454.50;4950718;29;19919;-83
2022/11/17 11:33:49;;;;;;;;;;;;;;;5.78;100.00;97453.09;4935942;29;20275;-85
2022/11/17 11:36:23;;;;;;;;;;;;;;;5.72;100.00;97439.47;4935946;29;19918;-84
2022/11/17 11:38:48;;;;;;;;;;;;;;;5.76;100.00;97438.34;4934496;29;19974;-85
2022/11/17 11:41:22;;;;;;;;;;;;;;;5.81;100.00;97441.56;4950559;29;19919;-86
2022/11/17 11:43:48;;;;;;;;;;;;;;;5.81;100.00;97436.31;4935987;29;19925;-87
2022/11/17 11:46:19;;;;;;;;;;;;;;;5.84;100.00;97446.63;4935866;29;19919;-87
2022/11/17 11:48:47;;;;;;;;;;;;;;;5.82;100.00;97448.50;4935842;29;19922;-83
2022/11/17 11:51:15;;;;;;;;;;;;;;;5.87;100.00;97435.06;4935361;29;20009;-84
2022/11/17 11:53:43;;;;;;;;;;;;;;;5.83;100.00;97434.41;4934791;29;19922;-87
2022/11/17 11:56:08;;;;;;;;;;;;;;;5.85;100.00;97429.91;4935751;29;20362;-88
2022/11/17 11:58:37;;;;;;;;;;;;;;;5.79;100.00;97430.28;4950574;29;20010;-85
2022/11/17 12:01:06;;;;;;;;;;;;;;;5.75;100.00;97419.13;4935697;29;19919;-89
2022/11/17 12:03:52;;;;;;;;;;;;;;;5.75;100.00;97415.66;4937396;29;19985;-86
2022/11/17 12:06:40;;;;;;;;;;;;;;;5.76;100.00;97417.31;4954280;29;19925;-87
2022/11/17 12:09:13;;;;;;;;;;;;;;;5.78;100.00;97416.31;4952999;29;20365;-85
2022/11/17 12:14:23;;;;;;;;;;;;;;;5.78;100.00;97415.47;4939295;29;19929;-87
2022/11/17 12:16:48;;;;;;;;;;;;;;;5.79;100.00;97420.63;4939365;29;19918;-85
2022/11/17 12:19:32;;;;;;;;;;;;;;;5.82;100.00;97416.94;4938184;29;20293;-83
2022/11/17 12:21:58;;;;;;;;;;;;;;;5.78;100.00;97429.44;4939258;29;19919;-82
2022/11/17 12:24:34;;;;;;;;;;;;;;;5.77;100.00;97435.63;4952626;29;19929;-86
2022/11/17 12:27:28;;;;;;;;;;;;;;;5.83;100.00;97435.25;4939195;29;19925;-83
2022/11/17 12:29:53;;;;;;;;;;;;;;;5.80;100.00;97429.34;4934379;29;20014;-84
2022/11/17 12:32:37;;;;;;;;;;;;;;;5.77;100.00;97430.38;4939105;29;19946;-82
2022/11/17 12:35:21;;;;;;;;;;;;;;;5.79;100.00;97438.16;4938958;29;19925;-82
2022/11/17 12:37:46;;;;;;;;;;;;;;;5.75;100.00;97442.75;4938969;29;20013;-86
2022/11/17 12:40:30;;;;;;;;;;;;;;;5.77;100.00;97437.41;4952325;29;20022;-86
2022/11/17 12:43:14;;;;;;;;;;;;;;;5.72;100.00;97440.31;4953720;29;20366;-83
2022/11/17 12:45:51;;;;;;;;;;;;;;;5.77;100.00;97442.69;4938817;29;19989;-85
2022/11/17 12:48:22;;;;;;;;;;;;;;;5.73;100.00;97434.13;4938678;29;20009;-87
2022/11/17 12:50:54;;;;;;;;;;;;;;;5.73;100.00;97435.94;4938561;29;19923;-83
2022/11/17 12:53:19;;;;;;;;;;;;;;;5.74;100.00;97440.22;4938318;29;19926;-87
2022/11/17 12:56:03;;;;;;;;;;;;;;;5.72;100.00;97440.31;4937734;29;19919;-83
2022/11/17 12:58:43;;;;;;;;;;;;;;;5.74;100.00;97435.81;4938572;29;19930;-85
2022/11/17 13:01:17;;;;;;;;;;;;;;;5.73;100.00;97441.19;4938458;29;20346;-86
2022/11/17 13:03:56;;;;;;;;;;;;;;;5.73;100.00;97434.13;4938494;29;20009;-86
2022/11/17 13:06:22;;;;;;;;;;;;;;;5.73;100.00;97434.13;4938474;29;19926;-85
2022/11/17 13:09:06;;;;;;;;;;;;;;;5.72;100.00;97431.59;4952075;29;19923;-87
2022/11/17 13:11:32;;;;;;;;;;;;;;;5.72;100.00;97436.84;4938408;29;19926;-86
2022/11/17 13:14:12;;;;;;;;;;;;;;;5.77;100.00;97419.84;4938199;29;19919;-85
2022/11/17 13:16:42;;;;;;;;;;;;;;;5.74;100.00;97406.06;4952945;29;19919;-82
2022/11/17 13:19:26;;;;;;;;;;;;;;;5.68;100.00;97396.78;4938243;29;20271;-81
2022/11/17 13:21:56;;;;;;;;;;;;;;;5.63;100.00;97404.09;4938096;29;19966;-83
2022/11/17 13:24:29;;;;;;;;;;;;;;;5.64;100.00;97406.63;4936854;29;19941;-85
2022/11/17 13:26:58;;;;;;;;;;;;;;;5.64;100.00;97418.94;4938099;29;19914;-85
2022/11/17 13:29:23;;;;;;;;;;;;;;;5.72;100.00;97418.47;4937902;29;19922;-82
2022/11/17 13:31:49;;;;;;;;;;;;;;;5.79;100.00;97427.66;4938278;29;19922;-86
2022/11/17 13:34:16;;;;;;;;;;;;;;;5.73;100.00;97433.31;4952623;29;19967;-85
2022/11/17 13:36:57;;;;;;;;;;;;;;;5.77;100.00;97448.75;4938051;29;19922;-81
2022/11/17 13:39:24;;;;;;;;;;;;;;;5.79;100.00;97449.53;4936509;29;19966;-85
2022/11/17 13:41:49;;;;;;;;;;;;;;;5.78;100.00;97452.25;4937754;29;19919;-88
2022/11/17 13:44:19;;;;;;;;;;;;;;;5.74;100.00;97448.13;4937757;29;19918;-88
2022/11/17 13:46:44;;;;;;;;;;;;;;;5.77;100.00;97447.94;4937760;29;19919;-84
2022/11/17 13:49:28;;;;;;;;;;;;;;;5.75;100.00;97457.69;4936385;29;20271;-85
2022/11/17 13:51:53;;;;;;;;;;;;;;;5.73;100.00;97470.94;4952449;29;20013;-85
2022/11/17 13:54:20;;;;;;;;;;;;;;;5.68;100.00;97467.72;4936344;29;20017;-83
2022/11/17 13:56:45;;;;;;;;;;;;;;;5.71;100.00;97467.56;4937643;29;20402;-86
2022/11/17 13:59:17;;;;;;;;;;;;;;;5.75;100.00;97457.69;4937584;29;19973;-87
2022/11/17 14:01:43;;;;;;;;;;;;;;;5.72;100.00;97468.38;4937436;29;19922;-87
2022/11/17 14:04:13;;;;;;;;;;;;;;;5.69;100.00;97464.16;4937630;29;19919;-84
2022/11/17 14:06:58;;;;;;;;;;;;;;;5.68;100.00;97472.13;4937376;29;20423;-85
2022/11/17 14:09:24;;;;;;;;;;;;;;;5.62;100.00;97462.84;4934888;29;20122;-85
2022/11/17 14:11:50;;;;;;;;;;;;;;;5.64;100.00;97477.56;4936158;29;19919;-82
2022/11/17 14:14:21;;;;;;;;;;;;;;;5.66;100.00;97466.97;4951940;29;19941;-84
2022/11/17 14:16:47;;;;;;;;;;;;;;;5.68;100.00;97469.50;4952063;29;19941;-82
2022/11/17 14:19:15;;;;;;;;;;;;;;;5.61;100.00;97461.97;4937295;29;20330;-84
2022/11/17 14:22:00;;;;;;;;;;;;;;;5.66;100.00;97466.97;4937052;29;19969;-88
2022/11/17 14:24:25;;;;;;;;;;;;;;;5.64;100.00;97464.41;4935851;29;20398;-83
2022/11/17 14:26:50;;;;;;;;;;;;;;;5.66;100.00;97458.25;4951279;28;19970;-86
2022/11/17 14:29:15;;;;;;;;;;;;;;;5.65;100.00;97462.66;4951846;29;19926;-81
2022/11/17 14:31:42;;;;;;;;;;;;;;;5.61;100.00;97461.16;4951726;29;20017;-83
2022/11/17 14:34:07;;;;;;;;;;;;;;;5.58;100.00;97443.75;4951570;29;20006;-86
2022/11/17 14:36:33;;;;;;;;;;;;;;;5.57;100.00;97439.47;4936935;29;19970;-87
2022/11/17 14:38:59;;;;;;;;;;;;;;;5.54;100.00;97447.53;4950335;29;20005;-83
2022/11/17 14:41:24;;;;;;;;;;;;;;;5.63;100.00;97451.38;4936743;29;20013;-86
2022/11/17 14:43:50;;;;;;;;;;;;;;;5.62;100.00;97442.66;4951560;29;19918;-82
2022/11/17 14:46:25;;;;;;;;;;;;;;;5.58;100.00;97441.13;4936555;29;19958;-84
2022/11/17 14:48:51;;;;;;;;;;;;;;;5.57;100.00;97442.09;4935439;29;19919;-86
2022/11/17 14:51:17;;;;;;;;;;;;;;;5.61;100.00;97446.22;4951229;28;19923;-81
2022/11/17 14:53:43;;;;;;;;;;;;;;;5.62;100.00;97447.91;4935303;29;19922;-83
2022/11/17 14:56:09;;;;;;;;;;;;;;;5.64;100.00;97453.91;4951379;29;19962;-85
2022/11/17 14:58:34;;;;;;;;;;;;;;;5.62;100.00;97462.84;4936536;29;19919;-81
2022/11/17 15:01:10;;;;;;;;;;;;;;;5.61;100.00;97448.84;4951056;29;19925;-83
2022/11/17 15:03:35;;;;;;;;;;;;;;;5.62;100.00;97458.44;4936329;29;19955;-87
2022/11/17 15:06:03;;;;;;;;;;;;;;;5.61;100.00;97459.34;4936668;29;19954;-85
2022/11/17 15:08:29;;;;;;;;;;;;;;;5.61;100.00;97461.16;4934966;29;19983;-83
2022/11/17 15:10:54;;;;;;;;;;;;;;;5.65;100.00;97467.91;4951099;29;20021;-84
2022/11/17 15:13:19;;;;;;;;;;;;;;;5.67;100.00;97460.78;4936321;29;19926;-83
2022/11/17 15:15:45;;;;;;;;;;;;;;;5.63;100.00;97465.38;4950716;29;19919;-85
2022/11/17 15:18:11;;;;;;;;;;;;;;;5.59;100.00;97469.13;4936266;29;20022;-83
2022/11/17 15:20:36;;;;;;;;;;;;;;;5.58;100.00;97472.66;4950775;29;19918;-82
2022/11/17 15:23:01;;;;;;;;;;;;;;;5.58;100.00;97475.28;4936101;29;20301;-81
2022/11/17 15:25:27;;;;;;;;;;;;;;;6.49;100.00;97475.09;4935025;29;20006;-83
2022/11/17 15:27:53;;;;;;;;;;;;;;;6.75;100.00;97462.06;4950727;29;20511;-84
2022/11/17 15:30:18;;;;;;;;;;;;;;;6.20;100.00;97466.34;4936010;29;19918;-84
2022/11/17 15:32:43;;;;;;;;;;;;;;;5.99;100.00;97472.00;4950617;29;19929;-84
2022/11/17 15:35:09;;;;;;;;;;;;;;;5.93;100.00;97468.88;4935995;29;19919;-84
2022/11/17 15:37:34;;;;;;;;;;;;;;;5.87;100.00;97471.88;4949743;28;19950;-86
2022/11/17 15:39:59;;;;;;;;;;;;;;;5.83;100.00;97463.31;4949283;29;20294;-84
2022/11/17 15:42:25;;;;;;;;;;;;;;;5.81;100.00;97462.59;4935865;29;19966;-87
2022/11/17 15:44:50;;;;;;;;;;;;;;;5.82;100.00;97465.13;4935888;29;19962;-87
2022/11/17 15:47:15;;;;;;;;;;;;;;;5.78;100.00;97462.78;4935880;29;20371;-84
2022/11/17 15:49:40;;;;;;;;;;;;;;;5.74;100.00;97462.09;4950421;28;19930;-83
2022/11/17 15:52:06;;;;;;;;;;;;;;;5.76;100.00;97457.59;4935870;29;19967;-88
2022/11/17 15:54:31;;;;;;;;;;;;;;;5.71;100.00;97457.03;4934495;29;19958;-84
2022/11/17 15:56:59;;;;;;;;;;;;;;;5.71;100.00;97466.69;4950712;29;19974;-83
2022/11/17 15:59:24;;;;;;;;;;;;;;;5.69;100.00;97460.69;4950516;29;19918;-87
2022/11/17 16:01:49;;;;;;;;;;;;;;;5.66;100.00;97466.97;4935592;29;19919;-86
2022/11/17 16:04:15;;;;;;;;;;;;;;;5.68;100.00;97466.88;4936152;29;19919;-91
2022/11/17 16:06:41;;;;;;;;;;;;;;;5.67;100.00;97465.19;4935762;29;19928;-86
2022/11/17 16:09:06;;;;;;;;;;;;;;;5.68;100.00;97459.00;4934559;29;19926;-88
2022/11/17 16:11:32;;;;;;;;;;;;;;;5.62;100.00;97458.44;4950442;29;19923;-88
2022/11/17 16:13:58;;;;;;;;;;;;;;;5.64;100.00;97451.28;4950542;29;20029;-84
2022/11/17 16:16:26;;;;;;;;;;;;;;;5.60;100.00;97447.16;4935590;29;19929;-89
2022/11/17 16:18:51;;;;;;;;;;;;;;;5.62;100.00;97445.28;4950402;29;19983;-91
2022/11/17 16:21:17;;;;;;;;;;;;;;;5.58;100.00;97449.03;4935647;29;20382;-90
2022/11/17 16:23:43;;;;;;;;;;;;;;;5.59;100.00;97450.72;4934272;29;19933;-88
2022/11/17 16:26:09;;;;;;;;;;;;;;;5.59;100.00;97450.72;4935506;29;19919;-90
2022/11/17 16:28:35;;;;;;;;;;;;;;;5.57;100.00;97447.34;4934487;29;19919;-90
2022/11/17 16:31:21;;;;;;;;;;;;;;;5.58;100.00;97438.50;4935519;29;19982;-85
2022/11/17 16:33:50;;;;;;;;;;;;;;;5.51;100.00;97450.34;4938569;28;20021;-88
2022/11/17 16:36:16;;;;;;;;;;;;;;;5.50;100.00;97456.53;4951674;28;19970;-84
2022/11/17 16:38:41;;;;;;;;;;;;;;;5.53;100.00;97453.72;4952233;28;19922;-86
2022/11/17 16:41:08;;;;;;;;;;;;;;;5.56;100.00;97456.16;4954516;28;19918;-85
2022/11/17 16:43:33;;;;;;;;;;;;;;;5.58;100.00;97456.91;4953007;28;19930;-82
2022/11/17 16:45:58;;;;;;;;;;;;;;;5.56;100.00;97458.78;4954551;29;19923;-85
2022/11/17 16:48:23;;;;;;;;;;;;;;;5.54;100.00;97452.78;4968440;28;20287;-86
2022/11/17 16:50:49;;;;;;;;;;;;;;;5.54;100.00;97465.91;4956748;28;19973;-84
2022/11/17 16:53:14;;;;;;;;;;;;;;;5.50;100.00;97463.56;4956717;29;19918;-86
2022/11/17 16:55:39;;;;;;;;;;;;;;;5.56;100.00;97469.28;4954183;28;20301;-85
2022/11/17 16:58:05;;;;;;;;;;;;;;;5.52;100.00;97473.06;4955821;28;20286;-85
2022/11/17 17:00:31;;;;;;;;;;;;;;;5.56;100.00;97476.34;4956236;28;19929;-87
2022/11/17 17:02:57;;;;;;;;;;;;;;;5.53;100.00;97479.16;4957173;28;19926;-86
2022/11/17 17:05:23;;;;;;;;;;;;;;;5.52;100.00;97474.81;4954472;28;19922;-85
2022/11/17 17:07:48;;;;;;;;;;;;;;;5.52;100.00;97486.19;4956416;29;19919;-83
2022/11/17 17:10:13;;;;;;;;;;;;;;;5.48;100.00;97481.22;4955148;28;19944;-84
2022/11/17 17:12:39;;;;;;;;;;;;;;;5.49;100.00;97482.88;4956312;28;19923;-83
2022/11/17 17:15:04;;;;;;;;;;;;;;;5.49;100.00;97483.75;4954922;28;19937;-83
2022/11/17 17:17:29;;;;;;;;;;;;;;;5.45;100.00;97479.59;4956095;28;20382;-83
2022/11/17 17:19:55;;;;;;;;;;;;;;;5.42;100.00;97487.66;4956657;28;20024;-83
2022/11/17 17:22:20;;;;;;;;;;;;;;;5.45;100.00;97485.69;4952208;28;19923;-86
2022/11/17 17:24:45;;;;;;;;;;;;;;;5.46;100.00;97486.53;4952128;28;19995;-83
2022/11/17 17:27:11;;;;;;;;;;;;;;;5.42;100.00;97488.47;4954296;28;19923;-87
2022/11/17 17:29:36;;;;;;;;;;;;;;;5.48;100.00;97487.28;4970389;28;19946;-83
2022/11/17 17:32:02;;;;;;;;;;;;;;;5.43;100.00;97490.19;4955494;28;20061;-87
2022/11/17 17:34:28;;;;;;;;;;;;;;;5.47;100.00;97490.84;4971554;28;19922;-88
2022/11/17 17:36:53;;;;;;;;;;;;;;;5.43;100.00;97490.19;4972241;28;20290;-92
2022/11/17 17:39:18;;;;;;;;;;;;;;;5.42;100.00;97491.09;4969947;28;19927;-89
2022/11/17 17:41:44;;;;;;;;;;;;;;;5.37;100.00;97487.91;4970604;28;19976;-89
2022/11/17 17:44:14;;;;;;;;;;;;;;;5.39;100.00;97496.56;4971874;28;19926;-86
2022/11/17 17:46:41;;;;;;;;;;;;;;;5.40;100.00;97490.38;4956857;28;19918;-88
2022/11/17 17:49:07;;;;;;;;;;;;;;;5.34;100.00;97498.59;4956802;28;19918;-86
2022/11/17 17:51:35;;;;;;;;;;;;;;;5.42;100.00;97500.78;4971617;28;19925;-86
2022/11/17 17:54:00;;;;;;;;;;;;;;;5.39;100.00;97506.22;4971737;28;19927;-86
2022/11/17 17:56:26;;;;;;;;;;;;;;;5.40;100.00;97507.91;4974853;28;19925;-86
2022/11/17 17:58:54;;;;;;;;;;;;;;;5.40;100.00;97505.28;4971297;28;20392;-87
2022/11/17 18:01:21;;;;;;;;;;;;;;;5.39;100.00;97506.22;4955816;28;20021;-90
2022/11/17 18:03:47;;;;;;;;;;;;;;;5.39;100.00;97506.22;4955372;29;19925;-88
2022/11/17 18:06:13;;;;;;;;;;;;;;;5.37;100.00;97506.28;4956651;28;20290;-88
2022/11/17 18:08:39;;;;;;;;;;;;;;;5.37;100.00;97498.41;4955399;28;20378;-84
2022/11/17 18:11:06;;;;;;;;;;;;;;;5.36;100.00;97509.00;4954931;29;19977;-85
2022/11/17 18:13:38;;;;;;;;;;;;;;;5.40;100.00;97518.41;4953543;28;19977;-88
2022/11/17 18:16:05;;;;;;;;;;;;;;;5.38;100.00;97512.41;4955583;28;19974;-88
2022/11/17 18:18:32;;;;;;;;;;;;;;;5.43;100.00;97513.00;4971436;28;19977;-91
2022/11/17 18:21:02;;;;;;;;;;;;;;;6.17;100.00;97516.50;4971836;28;19933;-87
2022/11/17 18:23:28;;;;;;;;;;;;;;;5.84;100.00;97536.00;4953265;28;19922;-86
2022/11/17 18:25:53;;;;;;;;;;;;;;;5.66;100.00;97532.66;4952579;28;19965;-86
2022/11/17 18:28:19;;;;;;;;;;;;;;;5.57;100.00;97530.59;4953803;28;19961;-85
2022/11/17 18:30:44;;;;;;;;;;;;;;;5.57;100.00;97520.06;4954277;28;20370;-86
2022/11/17 18:33:09;;;;;;;;;;;;;;;5.52;100.00;97522.97;4954187;28;19954;-87
2022/11/17 18:35:35;;;;;;;;;;;;;;;5.55;100.00;97525.41;4955278;28;19922;-91
2022/11/17 18:38:00;;;;;;;;;;;;;;;5.49;100.00;97528.41;4953354;28;19923;-89
2022/11/17 18:40:25;;;;;;;;;;;;;;;5.49;100.00;97532.78;4950157;28;19922;-83
2022/11/17 18:42:51;;;;;;;;;;;;;;;5.44;100.00;97527.78;4970552;28;20371;-84
2022/11/17 18:45:17;;;;;;;;;;;;;;;5.44;100.00;97526.03;4956031;29;19925;-88
2022/11/17 18:47:42;;;;;;;;;;;;;;;5.47;100.00;97546.00;4970169;28;20039;-83
2022/11/17 18:50:07;;;;;;;;;;;;;;;5.49;100.00;97552.03;4953253;28;19922;-85
2022/11/17 18:52:33;;;;;;;;;;;;;;;5.54;100.00;97549.16;4970731;28;19922;-87
2022/11/17 18:54:59;;;;;;;;;;;;;;;5.48;100.00;97555.59;4954395;28;19922;-86
2022/11/17 18:57:24;;;;;;;;;;;;;;;5.42;100.00;97556.78;4969603;28;20009;-83
2022/11/17 18:59:49;;;;;;;;;;;;;;;5.41;100.00;97554.25;4968910;28;19973;-83
2022/11/17 19:02:15;;;;;;;;;;;;;;;5.41;100.00;97560.34;4970284;28;20321;-84
2022/11/17 19:04:40;;;;;;;;;;;;;;;5.42;100.00;97556.78;4966087;28;19926;-85
2022/11/17 19:07:05;;;;;;;;;;;;;;;5.40;100.00;97558.66;4969330;28;19918;-86
2022/11/17 19:09:31;;;;;;;;;;;;;;;5.38;100.00;97544.78;4953085;29;19930;-86
2022/11/17 19:11:56;;;;;;;;;;;;;;;5.40;100.00;97548.16;4953984;28;19925;-84
2022/11/17 19:14:21;;;;;;;;;;;;;;;5.36;100.00;97551.91;4969348;28;20013;-83
2022/11/17 19:16:49;;;;;;;;;;;;;;;5.39;100.00;97556.09;4969603;28;19923;-85
2022/11/17 19:19:14;;;;;;;;;;;;;;;5.35;100.00;97550.19;4950026;28;19918;-83
2022/11/17 19:21:42;;;;;;;;;;;;;;;5.36;100.00;97564.16;4950762;29;19922;-88
2022/11/17 19:24:07;;;;;;;;;;;;;;;5.33;100.00;97559.09;4951958;28;19927;-85
2022/11/17 19:26:34;;;;;;;;;;;;;;;5.35;100.00;97560.69;4953075;28;19933;-86
2022/11/17 19:29:01;;;;;;;;;;;;;;;5.36;100.00;97561.53;4953041;28;19927;-84
2022/11/17 19:31:27;;;;;;;;;;;;;;;5.37;100.00;97565.88;4969077;28;19918;-83
2022/11/17 19:33:53;;;;;;;;;;;;;;;5.34;100.00;97569.50;4952631;28;19933;-83
2022/11/17 19:36:26;;;;;;;;;;;;;;;5.36;100.00;97559.78;4954233;28;20354;-85
2022/11/17 19:38:52;;;;;;;;;;;;;;;5.36;100.00;97561.53;4952396;29;19932;-86
2022/11/17 19:41:19;;;;;;;;;;;;;;;5.33;100.00;97553.84;4969860;28;20013;-85
2022/11/17 19:43:44;;;;;;;;;;;;;;;5.32;100.00;97563.50;4954165;28;20449;-86
2022/11/17 19:46:11;;;;;;;;;;;;;;;5.32;100.00;97557.41;4953692;29;20054;-84
2022/11/17 19:48:36;;;;;;;;;;;;;;;5.30;100.00;97552.25;4952297;28;20341;-86
2022/11/17 19:51:10;;;;;;;;;;;;;;;5.31;100.00;97558.34;4951372;28;19922;-85
2022/11/17 19:53:35;;;;;;;;;;;;;;;5.35;100.00;97565.13;4966021;28;20301;-84
2022/11/17 19:56:00;;;;;;;;;;;;;;;5.31;100.00;97561.78;4954853;29;19918;-83
2022/11/17 19:58:26;;;;;;;;;;;;;;;5.32;100.00;97571.38;4968521;28;20382;-83
2022/11/17 20:00:53;;;;;;;;;;;;;;;5.27;100.00;97568.16;4968846;28;19923;-86
2022/11/17 20:03:20;;;;;;;;;;;;;;;5.28;100.00;97568.09;4954846;28;19919;-84
2022/11/17 20:05:45;;;;;;;;;;;;;;;5.31;100.00;97568.84;4951620;28;19923;-85